createdAt,value
2022-11-12T00:01:45.965Z,98534.72
2022-11-12T00:04:31.263Z,98532.53
2022-11-12T00:07:16.587Z,98528.13
2022-11-12T00:10:01.999Z,98530.84
2022-11-12T00:12:47.471Z,98529.38
2022-11-12T00:15:32.558Z,98520.28
2022-11-12T00:18:18.009Z,98530.47
2022-11-12T00:21:03.281Z,98526.81
2022-11-12T00:23:48.617Z,98524.81
2022-11-12T00:26:33.798Z,98520.63
2022-11-12T00:29:19.071Z,98526.06
2022-11-12T00:32:06.410Z,98525.91
2022-11-12T00:34:51.618Z,98521.69
2022-11-12T00:37:36.902Z,98520.03
2022-11-12T00:40:22.182Z,98521.31
2022-11-12T00:43:07.646Z,98520.59
2022-11-12T00:45:53.084Z,98523.81
2022-11-12T00:48:38.366Z,98522.91
2022-11-12T00:51:23.805Z,98519.44
2022-11-12T00:54:09.142Z,98515.22
2022-11-12T00:56:54.472Z,98519.25
2022-11-12T00:59:39.906Z,98528.69
2022-11-12T01:02:25.533Z,98524.50
2022-11-12T01:05:10.949Z,98535.22
2022-11-12T01:07:56.452Z,98524.84
2022-11-12T01:10:41.649Z,98537.03
2022-11-12T01:13:26.874Z,98518.97
2022-11-12T01:16:19.792Z,98526.97
2022-11-12T01:19:06.988Z,98534.44
2022-11-12T01:21:51.942Z,98530.00
2022-11-12T01:24:37.230Z,98525.81
2022-11-12T01:27:22.680Z,98525.63
2022-11-12T01:30:08.702Z,98524.69
2022-11-12T01:32:54.001Z,98520.31
2022-11-12T01:35:39.443Z,98515.91
2022-11-12T01:38:25.029Z,98519.91
2022-11-12T01:41:14.574Z,98519.72
2022-11-12T01:44:21.264Z,98510.06
2022-11-12T01:47:06.350Z,98506.41
2022-11-12T01:50:32.467Z,98501.28
2022-11-12T01:53:18.409Z,98504.34
2022-11-12T01:56:05.002Z,98495.03
2022-11-12T01:58:54.135Z,98492.81
2022-11-12T02:01:39.568Z,98492.63
2022-11-12T02:04:26.785Z,98485.19
2022-11-12T02:07:12.592Z,98492.44
2022-11-12T02:10:00.238Z,98485.50
2022-11-12T02:13:03.823Z,98492.22
2022-11-12T02:15:49.187Z,98496.03
2022-11-12T02:18:34.678Z,98494.34
2022-11-12T02:21:22.007Z,98493.44
2022-11-12T02:24:13.458Z,98488.50
2022-11-12T02:26:58.741Z,98495.94
2022-11-12T02:29:46.792Z,98493.03
2022-11-12T02:32:31.822Z,98490.84
2022-11-12T02:35:17.429Z,98487.38
2022-11-12T02:38:03.525Z,98481.72
2022-11-12T02:40:48.658Z,98481.72
2022-11-12T02:43:34.156Z,98482.97
2022-11-12T02:46:19.366Z,98478.81
2022-11-12T02:49:04.715Z,98477.34
2022-11-12T02:51:49.989Z,98480.56
2022-11-12T02:54:35.443Z,98470.94
2022-11-12T02:57:20.751Z,98473.66
2022-11-12T03:00:09.006Z,98480.38
2022-11-12T03:02:59.977Z,98472.94
2022-11-12T03:05:46.312Z,98476.94
2022-11-12T03:08:31.381Z,98467.81
2022-11-12T03:11:17.735Z,98467.81
2022-11-12T03:14:03.277Z,98467.06
2022-11-12T03:16:48.656Z,98466.88
2022-11-12T03:19:33.848Z,98469.63
2022-11-12T03:22:19.121Z,98471.38
2022-11-12T03:25:05.522Z,98471.19
2022-11-12T03:28:07.210Z,98469.75
2022-11-12T03:31:04.113Z,98469.00
2022-11-12T03:33:49.847Z,98470.28
2022-11-12T03:36:34.958Z,98473.50
2022-11-12T03:39:20.447Z,98474.78
2022-11-12T03:42:05.741Z,98469.66
2022-11-12T03:44:51.247Z,98464.75
2022-11-12T03:47:36.565Z,98471.47
2022-11-12T03:50:23.748Z,98481.63
2022-11-12T03:53:08.885Z,98473.22
2022-11-12T03:55:54.187Z,98469.03
2022-11-12T03:58:39.747Z,98468.84
2022-11-12T04:01:25.143Z,98469.38
2022-11-12T04:04:10.466Z,98461.72
2022-11-12T04:07:14.088Z,98463.00
2022-11-12T04:09:59.246Z,98455.13
2022-11-12T04:13:03.134Z,98469.28
2022-11-12T04:16:08.489Z,98459.47
2022-11-12T04:19:23.291Z,98464.16
2022-11-12T04:22:11.538Z,98457.78
2022-11-12T04:25:15.781Z,98456.31
2022-11-12T04:28:01.075Z,98453.38
2022-11-12T04:30:46.303Z,98453.19
2022-11-12T04:33:31.586Z,98448.28
2022-11-12T04:36:16.978Z,98444.09
2022-11-12T04:39:02.353Z,98446.06
2022-11-12T04:42:06.371Z,98439.16
2022-11-12T04:45:20.817Z,98445.13
2022-11-12T04:48:05.960Z,98448.41
2022-11-12T04:51:34.697Z,98450.91
2022-11-12T04:54:20.141Z,98455.44
2022-11-12T04:57:05.366Z,98455.19
2022-11-12T04:59:50.651Z,98456.47
2022-11-12T05:02:35.839Z,98453.00
2022-11-12T05:05:21.078Z,98458.47
2022-11-12T05:08:06.593Z,98452.28
2022-11-12T05:10:51.974Z,98461.72
2022-11-12T05:13:37.232Z,98456.06
2022-11-12T05:16:22.550Z,98455.31
2022-11-12T05:19:07.869Z,98457.84
2022-11-12T05:22:17.391Z,98458.38
2022-11-12T05:25:12.466Z,98464.34
2022-11-12T05:27:58.074Z,98453.97
2022-11-12T05:30:43.491Z,98456.50
2022-11-12T05:33:28.675Z,98448.13
2022-11-12T05:36:14.058Z,98454.09
2022-11-12T05:38:59.294Z,98449.19
2022-11-12T05:42:10.794Z,98449.91
2022-11-12T05:44:50.423Z,98442.28
2022-11-12T05:47:35.593Z,98441.31
2022-11-12T05:50:20.953Z,98449.50
2022-11-12T05:53:06.194Z,98445.84
2022-11-12T05:55:51.555Z,98449.28
2022-11-12T05:58:37.487Z,98452.00
2022-11-12T06:01:23.175Z,98456.00
2022-11-12T06:04:08.728Z,98448.34
2022-11-12T06:06:54.188Z,98452.31
2022-11-12T06:09:39.349Z,98463.75
2022-11-12T06:12:24.770Z,98460.06
2022-11-12T06:15:10.136Z,98462.06
2022-11-12T06:17:55.795Z,98456.53
2022-11-12T06:20:40.820Z,98462.44
2022-11-12T06:23:26.397Z,98455.78
2022-11-12T06:26:11.603Z,98467.84
2022-11-12T06:28:57.118Z,98461.78
2022-11-12T06:31:42.222Z,98466.50
2022-11-12T06:34:28.118Z,98474.03
2022-11-12T06:37:13.652Z,98460.38
2022-11-12T06:39:59.015Z,98465.50
2022-11-12T06:42:44.462Z,98469.09
2022-11-12T06:45:29.888Z,98471.72
2022-11-12T06:48:15.234Z,98479.59
2022-11-12T06:51:06.796Z,98472.19
2022-11-12T06:53:52.422Z,98471.97
2022-11-12T06:56:37.751Z,98482.56
2022-11-12T06:59:23.223Z,98486.00
2022-11-12T07:02:12.667Z,98486.78
2022-11-12T07:04:57.848Z,98501.38
2022-11-12T07:07:43.200Z,98493.97
2022-11-12T07:10:28.496Z,98493.47
2022-11-12T07:13:13.965Z,98486.72
2022-11-12T07:16:00.413Z,98489.38
2022-11-12T07:18:46.857Z,98492.03
2022-11-12T07:21:32.380Z,98499.59
2022-11-12T07:24:17.968Z,98494.84
2022-11-12T07:27:03.213Z,98495.81
2022-11-12T07:29:48.994Z,98501.69
2022-11-12T07:32:37.401Z,98500.66
2022-11-12T07:35:25.229Z,98500.91
2022-11-12T07:38:10.659Z,98500.09
2022-11-12T07:41:20.161Z,98496.00
2022-11-12T07:44:05.635Z,98494.84
2022-11-12T07:46:51.011Z,98491.72
2022-11-12T07:49:36.292Z,98497.09
2022-11-12T07:52:21.718Z,98491.81
2022-11-12T07:55:07.359Z,98496.84
2022-11-12T07:57:53.650Z,98502.88
2022-11-12T08:00:39.198Z,98502.78
2022-11-12T08:03:24.848Z,98501.00
2022-11-12T08:06:10.429Z,98497.47
2022-11-12T08:08:56.826Z,98493.22
2022-11-12T08:11:42.286Z,98498.56
2022-11-12T08:14:27.630Z,98493.47
2022-11-12T08:17:13.218Z,98495.56
2022-11-12T08:19:58.566Z,98505.84
2022-11-12T08:22:48.923Z,98507.22
2022-11-12T08:25:35.046Z,98509.53
2022-11-12T08:28:20.074Z,98510.09
2022-11-12T08:31:06.932Z,98513.47
2022-11-12T08:33:52.326Z,98512.09
2022-11-12T08:36:38.304Z,98513.16
2022-11-12T08:39:23.432Z,98511.19
2022-11-12T08:42:08.848Z,98513.16
2022-11-12T08:44:54.144Z,98511.78
2022-11-12T08:47:39.521Z,98513.88
2022-11-12T08:50:24.872Z,98515.66
2022-11-12T08:53:12.590Z,98517.72
2022-11-12T08:55:58.311Z,98521.25
2022-11-12T08:58:43.638Z,98523.53
2022-11-12T09:01:29.743Z,98517.56
2022-11-12T09:04:15.212Z,98517.16
2022-11-12T09:07:00.914Z,98514.84
2022-11-12T09:09:46.189Z,98510.75
2022-11-12T09:12:31.474Z,98513.63
2022-11-12T09:18:22.426Z,98512.53
2022-11-12T09:21:11.365Z,98513.66
2022-11-12T09:23:56.686Z,98506.09
2022-11-12T09:26:42.166Z,98500.81
2022-11-12T09:29:27.321Z,98504.13
2022-11-12T09:32:12.616Z,98508.00
2022-11-12T09:34:58.183Z,98508.06
2022-11-12T09:37:43.129Z,98507.41
2022-11-12T09:40:37.101Z,98509.25
2022-11-12T09:43:38.081Z,98499.16
2022-11-12T09:46:28.100Z,98497.06
2022-11-12T09:49:36.682Z,98498.75
2022-11-12T09:52:28.354Z,98498.38
2022-11-12T09:55:28.781Z,98495.91
2022-11-12T09:58:14.533Z,98495.44
2022-11-12T10:01:06.415Z,98489.44
2022-11-12T10:04:29.066Z,98487.81
2022-11-12T10:07:44.365Z,98488.59
2022-11-12T10:11:08.273Z,98486.09
2022-11-12T10:14:08.844Z,98486.66
2022-11-12T10:17:13.885Z,98479.94
2022-11-12T10:20:21.482Z,98480.00
2022-11-12T10:23:17.348Z,98475.84
2022-11-12T10:26:12.258Z,98475.84
2022-11-12T10:29:08.735Z,98473.16
2022-11-12T10:31:54.128Z,98466.25
2022-11-12T10:34:40.279Z,98460.41
2022-11-12T10:37:33.988Z,98461.19
2022-11-12T10:40:24.779Z,98456.63
2022-11-12T10:43:15.977Z,98450.78
2022-11-12T10:46:17.857Z,98441.47
2022-11-12T10:49:05.851Z,98438.50
2022-11-12T10:51:56.901Z,98432.84
2022-11-12T10:54:42.685Z,98435.19
2022-11-12T10:57:27.918Z,98434.59
2022-11-12T11:00:13.283Z,98432.88
2022-11-12T11:02:59.450Z,98431.22
2022-11-12T11:05:53.857Z,98435.53
2022-11-12T11:08:43.584Z,98431.09
2022-11-12T11:11:29.923Z,98431.75
2022-11-12T11:14:30.147Z,98427.63
2022-11-12T11:17:17.503Z,98426.81
2022-11-12T11:20:14.911Z,98424.91
2022-11-12T11:23:06.954Z,98424.44
2022-11-12T11:25:54.196Z,98428.91
2022-11-12T11:28:47.746Z,98421.00
2022-11-12T11:31:54.700Z,98417.63
2022-11-12T11:35:05.898Z,98404.16
2022-11-12T11:38:25.891Z,98399.22
2022-11-12T11:41:34.502Z,98395.09
2022-11-12T11:44:32.029Z,98393.75
2022-11-12T11:47:43.861Z,98397.69
2022-11-12T11:50:34.255Z,98393.56
2022-11-12T11:54:04.664Z,98397.81
2022-11-12T11:56:51.990Z,98388.34
2022-11-12T12:00:15.955Z,98386.97
2022-11-12T12:03:19.738Z,98384.16
2022-11-12T12:06:16.293Z,98383.31
2022-11-12T12:09:05.164Z,98380.00
2022-11-12T12:12:11.096Z,98369.63
2022-11-12T12:15:11.123Z,98364.69
2022-11-12T12:18:11.440Z,98366.16
2022-11-12T12:21:16.516Z,98368.78
2022-11-12T12:24:03.658Z,98355.63
2022-11-12T12:26:55.424Z,98360.66
2022-11-12T12:29:53.037Z,98350.06
2022-11-12T12:32:46.925Z,98352.06
2022-11-12T12:35:41.122Z,98342.50
2022-11-12T12:38:38.182Z,98343.25
2022-11-12T12:42:00.281Z,98340.50
2022-11-12T12:45:17.811Z,98343.50
2022-11-12T12:48:17.071Z,98336.13
2022-11-12T12:51:02.870Z,98338.03
2022-11-12T12:53:48.197Z,98333.69
2022-11-12T12:56:33.494Z,98333.78
2022-11-12T12:59:22.485Z,98332.66
2022-11-12T13:02:23.676Z,98324.53
2022-11-12T13:05:32.279Z,98318.19
2022-11-12T13:08:24.094Z,98321.25
2022-11-12T13:11:10.238Z,98317.19
2022-11-12T13:13:55.654Z,98317.66
2022-11-12T13:16:56.485Z,98317.81
2022-11-12T13:19:53.989Z,98313.16
2022-11-12T13:22:39.209Z,98316.81
2022-11-12T13:25:27.415Z,98312.03
2022-11-12T13:28:13.140Z,98307.09
2022-11-12T13:30:59.688Z,98310.28
2022-11-12T13:33:44.671Z,98300.88
2022-11-12T13:36:30.118Z,98302.88
2022-11-12T13:39:17.724Z,98306.81
2022-11-12T13:42:31.009Z,98311.00
2022-11-12T13:45:17.747Z,98305.06
2022-11-12T13:48:07.326Z,98300.69
2022-11-12T13:50:56.529Z,98305.59
2022-11-12T13:53:42.106Z,98299.34
2022-11-12T13:56:35.724Z,98306.69
2022-11-12T13:59:25.878Z,98304.09
2022-11-12T14:02:23.533Z,98295.69
2022-11-12T14:05:18.081Z,98296.81
2022-11-12T14:08:25.087Z,98293.75
2022-11-12T14:11:31.929Z,98298.34
2022-11-12T14:14:38.369Z,98287.88
2022-11-12T14:17:29.512Z,98276.44
2022-11-12T14:20:27.728Z,98278.41
2022-11-12T14:23:23.168Z,98281.97
2022-11-12T14:26:11.663Z,98283.53
2022-11-12T14:28:57.598Z,98290.22
2022-11-12T14:31:44.230Z,98292.34
2022-11-12T14:34:34.662Z,98294.94
2022-11-12T14:37:42.892Z,98285.34
2022-11-12T14:40:30.635Z,98286.47
2022-11-12T14:43:22.348Z,98288.16
2022-11-12T14:46:27.271Z,98279.78
2022-11-12T14:49:23.819Z,98276.00
2022-11-12T14:52:11.939Z,98272.03
2022-11-12T14:55:08.148Z,98264.44
2022-11-12T14:57:53.488Z,98261.94
2022-11-12T15:00:42.380Z,98261.22
2022-11-12T15:03:32.083Z,98262.19
2022-11-12T15:06:31.833Z,98266.47
2022-11-12T15:09:22.988Z,98268.00
2022-11-12T15:12:11.926Z,98283.97
2022-11-12T15:15:23.678Z,98276.53
2022-11-12T15:18:20.800Z,98278.31
2022-11-12T15:21:12.122Z,98260.59
2022-11-12T15:24:12.866Z,98257.00
2022-11-12T15:27:00.290Z,98258.50
2022-11-12T15:29:45.735Z,98246.84
2022-11-12T15:32:33.522Z,98237.75
2022-11-12T15:35:25.093Z,98237.41
2022-11-12T15:38:17.900Z,98220.47
2022-11-12T15:41:04.237Z,98220.19
2022-11-12T15:43:49.659Z,98217.88
2022-11-12T15:46:35.214Z,98216.66
2022-11-12T15:49:20.800Z,98211.25
2022-11-12T15:52:06.222Z,98209.84
2022-11-12T15:54:51.507Z,98210.44
2022-11-12T15:57:51.632Z,98209.03
2022-11-12T16:00:38.387Z,98211.09
2022-11-12T16:03:24.026Z,98212.06
2022-11-12T16:06:11.992Z,98211.38
2022-11-12T16:08:57.580Z,98213.06
2022-11-12T16:11:42.947Z,98217.44
2022-11-12T16:14:28.409Z,98215.44
2022-11-12T16:17:15.747Z,98213.47
2022-11-12T16:20:01.321Z,98214.41
2022-11-12T16:22:47.000Z,98205.13
2022-11-12T16:25:34.600Z,98208.75
2022-11-12T16:28:20.123Z,98202.75
2022-11-12T16:31:06.693Z,98206.16
2022-11-12T16:33:51.729Z,98204.13
2022-11-12T16:36:38.412Z,98207.38
2022-11-12T16:39:23.584Z,98206.63
2022-11-12T16:42:10.901Z,98210.44
2022-11-12T16:44:56.273Z,98206.22
2022-11-12T16:47:47.267Z,98209.13
2022-11-12T16:50:32.544Z,98207.63
2022-11-12T16:53:19.318Z,98213.28
2022-11-12T16:56:04.944Z,98211.44
2022-11-12T16:58:50.775Z,98212.34
2022-11-12T17:01:35.884Z,98208.31
2022-11-12T17:04:24.341Z,98203.00
2022-11-12T17:07:09.744Z,98207.19
2022-11-12T17:09:54.926Z,98203.91
2022-11-12T17:12:40.327Z,98204.63
2022-11-12T17:15:26.017Z,98200.59
2022-11-12T17:18:11.918Z,98199.31
2022-11-12T17:20:57.694Z,98195.84
2022-11-12T17:23:43.421Z,98199.31
2022-11-12T17:26:28.935Z,98193.13
2022-11-12T17:29:14.194Z,98193.84
2022-11-12T17:31:59.548Z,98198.59
2022-11-12T17:34:44.850Z,98197.16
2022-11-12T17:37:30.188Z,98194.41
2022-11-12T17:40:15.752Z,98192.22
2022-11-12T17:43:00.991Z,98189.47
2022-11-12T17:45:53.135Z,98199.69
2022-11-12T17:48:38.739Z,98198.25
2022-11-12T17:51:28.682Z,98191.31
2022-11-12T17:54:14.108Z,98192.63
2022-11-12T17:56:59.361Z,98184.41
2022-11-12T17:59:44.766Z,98179.47
2022-11-12T18:02:30.166Z,98180.75
2022-11-12T18:05:15.558Z,98179.31
2022-11-12T18:08:01.031Z,98177.13
2022-11-12T18:10:46.370Z,98177.13
2022-11-12T18:13:31.839Z,98178.41
2022-11-12T18:16:19.275Z,98165.81
2022-11-12T18:19:05.289Z,98170.59
2022-11-12T18:21:52.834Z,98165.66
2022-11-12T18:24:37.987Z,98173.16
2022-11-12T18:27:23.234Z,98170.97
2022-11-12T18:30:09.008Z,98170.06
2022-11-12T18:32:54.101Z,98163.16
2022-11-12T18:35:39.364Z,98162.44
2022-11-12T18:38:24.747Z,98151.28
2022-11-12T18:41:14.851Z,98155.88
2022-11-12T18:44:01.311Z,98156.41
2022-11-12T18:46:46.479Z,98151.50
2022-11-12T18:49:31.814Z,98130.19
2022-11-12T18:52:17.210Z,98132.00
2022-11-12T18:55:03.974Z,98137.47
2022-11-12T18:57:49.483Z,98132.56
2022-11-12T19:00:35.257Z,98138.59
2022-11-12T19:03:20.490Z,98146.63
2022-11-12T19:06:06.748Z,98138.97
2022-11-12T19:08:52.431Z,98139.53
2022-11-12T19:11:37.514Z,98126.41
2022-11-12T19:14:23.789Z,98126.97
2022-11-12T19:17:08.892Z,98127.53
2022-11-12T19:19:54.234Z,98118.41
2022-11-12T19:22:39.470Z,98120.41
2022-11-12T19:25:24.802Z,98123.72
2022-11-12T19:28:10.115Z,98125.56
2022-11-12T19:30:55.845Z,98126.81
2022-11-12T19:33:41.090Z,98124.50
2022-11-12T19:36:27.008Z,98125.94
2022-11-12T19:39:12.521Z,98140.91
2022-11-12T19:41:57.754Z,98134.72
2022-11-12T19:44:43.154Z,98125.78
2022-11-12T19:47:28.607Z,98124.31
2022-11-12T19:50:13.674Z,98121.56
2022-11-12T19:52:58.968Z,98115.38
2022-11-12T19:55:44.213Z,98120.13
2022-11-12T19:58:31.753Z,98112.47
2022-11-12T20:01:18.528Z,98111.03
2022-11-12T20:04:04.035Z,98113.03
2022-11-12T20:06:49.416Z,98115.78
2022-11-12T20:09:34.626Z,98108.81
2022-11-12T20:12:19.894Z,98109.56
2022-11-12T20:15:06.282Z,98107.34
2022-11-12T20:17:51.258Z,98110.09
2022-11-12T20:20:36.711Z,98109.34
2022-11-12T20:23:23.670Z,98108.63
2022-11-12T20:26:11.005Z,98101.72
2022-11-12T20:28:56.725Z,98103.00
2022-11-12T20:31:42.309Z,98111.22
2022-11-12T20:34:27.413Z,98108.47
2022-11-12T20:37:12.819Z,98101.53
2022-11-12T20:39:58.169Z,98106.84
2022-11-12T20:42:43.857Z,98106.09
2022-11-12T20:45:28.894Z,98102.66
2022-11-12T20:48:14.271Z,98094.44
2022-11-12T20:51:23.193Z,98097.75
2022-11-12T20:54:10.506Z,98088.25
2022-11-12T20:56:56.179Z,98085.50
2022-11-12T20:59:41.351Z,98084.78
2022-11-12T21:02:26.635Z,98081.34
2022-11-12T21:05:12.565Z,98081.34
2022-11-12T21:07:58.024Z,98081.34
2022-11-12T21:10:43.293Z,98073.13
2022-11-12T21:13:28.938Z,98074.38
2022-11-12T21:16:14.789Z,98073.66
2022-11-12T21:19:01.669Z,98073.66
2022-11-12T21:21:46.769Z,98077.69
2022-11-12T21:24:32.023Z,98065.28
2022-11-12T21:27:17.412Z,98066.03
2022-11-12T21:30:02.958Z,98060.38
2022-11-12T21:32:48.339Z,98062.41
2022-11-12T21:35:33.866Z,98050.00
2022-11-12T21:38:18.998Z,98043.78
2022-11-12T21:41:13.610Z,98051.13
2022-11-12T21:43:59.024Z,98053.13
2022-11-12T21:46:44.682Z,98044.91
2022-11-12T21:49:29.898Z,98057.69
2022-11-12T21:52:15.355Z,98054.06
2022-11-12T21:55:00.669Z,98062.44
2022-11-12T21:57:46.018Z,98058.81
2022-11-12T22:00:46.876Z,98058.63
2022-11-12T22:03:32.123Z,98051.13
2022-11-12T22:06:18.780Z,98045.34
2022-11-12T22:09:05.257Z,98046.59
2022-11-12T22:11:50.369Z,98036.22
2022-11-12T22:14:35.714Z,98034.78
2022-11-12T22:17:20.913Z,98031.31
2022-11-12T22:20:07.097Z,98023.69
2022-11-12T22:22:52.486Z,98023.69
2022-11-12T22:25:37.830Z,98014.00
2022-11-12T22:28:23.378Z,98022.03
2022-11-12T22:31:12.441Z,98021.31
2022-11-12T22:33:59.222Z,98015.13
2022-11-12T22:36:44.655Z,98013.69
2022-11-12T22:39:29.970Z,98009.47
2022-11-12T22:42:15.406Z,98015.66
2022-11-12T22:45:00.720Z,98021.13
2022-11-12T22:47:46.185Z,98015.50
2022-11-12T22:50:31.636Z,98010.03
2022-11-12T22:53:17.139Z,98000.94
2022-11-12T22:56:04.623Z,98002.97
2022-11-12T22:58:50.336Z,98002.22
2022-11-12T23:01:36.182Z,97989.09
2022-11-12T23:04:21.568Z,97995.13
2022-11-12T23:07:06.775Z,97990.22
2022-11-12T23:09:52.074Z,97993.50
2022-11-12T23:12:37.346Z,97990.03
2022-11-12T23:15:22.830Z,97978.94
2022-11-12T23:18:08.262Z,97981.50
2022-11-12T23:20:53.792Z,97990.25
2022-11-12T23:23:39.323Z,97990.81
2022-11-12T23:26:27.507Z,97987.16
2022-11-12T23:29:12.873Z,97979.69
2022-11-12T23:31:58.379Z,97969.31
2022-11-12T23:34:43.736Z,97962.41
2022-11-12T23:37:29.019Z,97954.03
2022-11-12T23:40:14.689Z,97948.41
2022-11-12T23:42:59.810Z,97944.78
2022-11-12T23:45:45.262Z,97943.34
2022-11-12T23:48:30.914Z,97950.63
2022-11-12T23:51:19.175Z,97951.91
2022-11-12T23:54:04.517Z,97948.44
2022-11-12T23:56:49.831Z,97947.72
2022-11-12T23:59:35.447Z,97938.59
